Time;durP1;ratioP1;P1;durP2;ratioP2;P2;SDS_P1;SDS_P2;PMS_P1;PMS_P2;Temp;Humidity;BMP_temperature;BMP_pressure;BME280_temperature;BME280_humidity;BME280_pressure;Samples;Min_cycle;Max_cycle;Signal;HPM_P1;HPM_P2
2022/04/12 00:00:22;;;;;;;10.30;5.70;;;;;;100830.63;;;;107252;1274;64007;-33
2022/04/12 00:03:03;;;;;;;;;;;;;;100832.90;;;;107252;1274;64892;-33
2022/04/12 00:05:35;;;;;;;9.10;5.80;;;;;;100839.16;;;;107237;1274;64011;-32
2022/04/12 00:08:10;;;;;;;9.40;5.70;;;;;;100840.23;;;;107242;1274;63985;-29
2022/04/12 00:10:40;;;;;;;8.70;5.80;;;;;;100840.45;;;;107243;1274;64026;-33
2022/04/12 00:13:08;;;;;;;9.20;5.70;;;;;;100844.23;;;;107208;1274;64078;-33
2022/04/12 00:15:35;;;;;;;9.30;5.30;;;;;;100847.93;;;;107232;1275;64320;-33
2022/04/12 00:20:49;;;;;;;9.80;5.80;;;;;;100845.46;;;;107227;1274;64014;-33
2022/04/12 00:23:25;;;;;;;10.40;5.80;;;;;;100847.64;;;;107230;1274;64030;-34
2022/04/12 00:25:53;;;;;;;8.40;5.20;;;;;;100848.23;;;;107260;1274;63939;-29
2022/04/12 00:28:21;;;;;;;7.80;5.40;;;;;;100844.40;;;;107253;1274;65072;-30
2022/04/12 00:30:51;;;;;;;8.70;5.70;;;;;;100845.60;;;;107266;1274;63966;-34
2022/04/12 00:33:21;;;;;;;8.40;5.70;;;;;;100846.08;;;;107156;1274;64008;-38
2022/04/12 00:35:49;;;;;;;9.10;6.00;;;;;;100849.59;;;;107253;1274;63922;-39
2022/04/12 00:38:23;;;;;;;9.00;5.90;;;;;;100849.09;;;;107247;1274;64024;-33
2022/04/12 00:40:54;;;;;;;9.70;5.80;;;;;;100848.58;;;;107268;1274;64098;-34
2022/04/12 00:43:28;;;;;;;9.40;6.10;;;;;;100849.15;;;;107233;1274;64075;-34
2022/04/12 00:46:00;;;;;;;7.90;5.30;;;;;;100845.78;;;;107258;1274;64174;-32
2022/04/12 00:48:29;;;;;;;10.00;6.70;;;;;;100845.55;;;;107279;1274;64041;-29
2022/04/12 00:50:57;;;;;;;9.40;5.90;;;;;;100845.64;;;;107302;1274;63984;-30
2022/04/12 00:53:28;;;;;;;8.50;5.70;;;;;;100846.70;;;;107266;1274;65597;-32
2022/04/12 00:55:56;;;;;;;9.50;5.90;;;;;;100846.71;;;;107242;1274;63920;-32
2022/04/12 00:58:23;;;;;;;9.50;5.90;;;;;;100844.35;;;;107252;1274;63366;-38
2022/04/12 01:00:53;;;;;;;8.80;6.20;;;;;;100846.48;;;;107260;1274;63953;-31
2022/04/12 01:03:23;;;;;;;9.60;5.90;;;;;;100847.90;;;;107283;1273;63784;-30
2022/04/12 01:05:54;;;;;;;10.10;6.40;;;;;;100848.95;;;;107260;1274;64363;-26
2022/04/12 01:08:21;;;;;;;8.60;5.80;;;;;;100849.41;;;;107255;1274;64052;-29
2022/04/12 01:10:50;;;;;;;8.40;5.70;;;;;;100850.95;;;;107240;1274;63945;-29
2022/04/12 01:13:23;;;;;;;8.70;6.00;;;;;;100854.38;;;;107254;1274;64001;-30
2022/04/12 01:15:51;;;;;;;9.60;6.50;;;;;;100852.29;;;;107261;1274;63927;-33
2022/04/12 01:18:21;;;;;;;8.60;5.70;;;;;;100853.35;;;;107268;1274;65279;-31
2022/04/12 01:20:52;;;;;;;9.50;6.30;;;;;;100854.55;;;;107232;1274;64008;-29
2022/04/12 01:23:59;;;;;;;9.30;5.70;;;;;;100854.80;;;;107264;1274;64028;-30
2022/04/12 01:26:29;;;;;;;8.90;5.80;;;;;;100860.50;;;;107247;1274;65087;-33
2022/04/12 01:28:57;;;;;;;8.20;5.80;;;;;;100857.82;;;;107182;1275;63959;-30
2022/04/12 01:31:26;;;;;;;9.00;5.70;;;;;;100855.41;;;;107260;1274;64377;-30
2022/04/12 01:33:53;;;;;;;8.90;5.80;;;;;;100857.33;;;;107243;1274;64027;-30
2022/04/12 01:36:23;;;;;;;9.90;6.50;;;;;;100857.84;;;;107254;1274;63903;-30
2022/04/12 01:38:54;;;;;;;8.00;5.20;;;;;;100860.73;;;;107273;1274;64151;-33
2022/04/12 01:41:21;;;;;;;9.00;5.80;;;;;;100861.27;;;;107263;1274;64002;-33
2022/04/12 01:43:52;;;;;;;9.40;5.50;;;;;;100862.30;;;;107234;1274;64339;-33
2022/04/12 01:46:19;;;;;;;9.30;6.00;;;;;;100861.30;;;;107229;1274;64005;-33
2022/04/12 01:48:49;;;;;;;8.30;6.10;;;;;;100864.05;;;;107161;1274;63995;-29
2022/04/12 01:51:17;;;;;;;8.90;6.00;;;;;;100867.96;;;;107253;1274;63897;-29
2022/04/12 01:53:44;;;;;;;8.20;5.80;;;;;;100869.92;;;;107284;1273;63924;-32
2022/04/12 01:56:11;;;;;;;8.20;5.70;;;;;;100873.49;;;;107250;1274;64421;-33
2022/04/12 01:58:42;;;;;;;7.70;5.60;;;;;;100878.54;;;;107235;1274;63950;-29
2022/04/12 02:01:09;;;;;;;9.40;5.80;;;;;;100879.15;;;;107233;1274;64024;-29
2022/04/12 02:03:39;;;;;;;9.70;6.00;;;;;;100877.34;;;;107155;1274;63952;-32
2022/04/12 02:06:06;;;;;;;9.40;5.70;;;;;;100879.02;;;;107241;1274;64128;-33
2022/04/12 02:08:35;;;;;;;8.50;5.60;;;;;;100878.93;;;;107248;1274;65676;-29
2022/04/12 02:11:02;;;;;;;9.40;6.30;;;;;;100882.64;;;;107170;1274;64052;-29
2022/04/12 02:13:33;;;;;;;8.80;5.80;;;;;;100882.66;;;;107273;1273;64151;-29
2022/04/12 02:16:00;;;;;;;8.60;5.90;;;;;;100886.41;;;;107270;1274;64059;-29
2022/04/12 02:18:27;;;;;;;8.20;5.40;;;;;;100881.36;;;;107271;1274;64041;-33
2022/04/12 02:20:54;;;;;;;8.20;5.50;;;;;;100885.37;;;;107277;1274;65667;-33
2022/04/12 02:23:25;;;;;;;8.90;5.40;;;;;;100886.98;;;;107245;1274;64007;-31
2022/04/12 02:25:55;;;;;;;8.30;5.40;;;;;;100886.77;;;;107245;1274;64026;-32
2022/04/12 02:28:26;;;;;;;8.30;5.70;;;;;;100884.22;;;;107193;1274;63944;-29
2022/04/12 02:30:56;;;;;;;8.10;5.80;;;;;;100884.63;;;;107268;1274;63826;-29
2022/04/12 02:33:23;;;;;;;8.30;5.80;;;;;;100888.27;;;;107272;1274;66556;-29
2022/04/12 02:35:53;;;;;;;8.40;5.60;;;;;;100890.53;;;;107224;1274;64060;-29
2022/04/12 02:38:20;;;;;;;7.70;5.80;;;;;;100899.20;;;;107255;1274;63920;-30
2022/04/12 02:40:51;;;;;;;7.80;5.60;;;;;;100897.79;;;;107234;1274;64130;-33
2022/04/12 02:43:21;;;;;;;8.50;5.90;;;;;;100900.36;;;;107283;1274;64007;-30
2022/04/12 02:45:51;;;;;;;7.90;5.00;;;;;;100900.54;;;;107262;1274;65180;-33
2022/04/12 02:48:21;;;;;;;7.90;5.40;;;;;;100903.89;;;;107264;1274;64059;-31
2022/04/12 02:50:48;;;;;;;9.10;5.50;;;;;;100912.03;;;;107233;1274;64028;-33
2022/04/12 02:53:15;;;;;;;8.10;5.50;;;;;;100913.70;;;;107134;1274;64062;-33
2022/04/12 02:55:45;;;;;;;8.50;5.60;;;;;;100913.20;;;;107247;1274;64040;-28
2022/04/12 02:58:16;;;;;;;8.60;5.10;;;;;;100914.06;;;;107266;1274;66530;-29
2022/04/12 03:00:46;;;;;;;7.90;5.30;;;;;;100914.73;;;;107207;1274;63956;-28
2022/04/12 03:03:13;;;;;;;8.30;5.50;;;;;;100915.55;;;;107216;1274;64027;-29
2022/04/12 03:05:43;;;;;;;7.90;5.50;;;;;;100913.94;;;;107231;1274;63930;-29
2022/04/12 03:08:11;;;;;;;8.30;6.00;;;;;;100914.49;;;;107263;1274;64054;-29
2022/04/12 03:10:38;;;;;;;9.50;5.60;;;;;;100917.38;;;;107280;1274;64816;-33
2022/04/12 03:13:05;;;;;;;9.50;5.80;;;;;;100917.27;;;;107220;1274;64043;-33
2022/04/12 03:15:35;;;;;;;8.70;5.50;;;;;;100919.49;;;;107263;1274;64047;-29
2022/04/12 03:18:02;;;;;;;8.30;5.50;;;;;;100922.64;;;;107252;1274;63925;-29
2022/04/12 03:20:30;;;;;;;8.10;5.40;;;;;;100926.56;;;;107271;1274;63947;-31
2022/04/12 03:22:58;;;;;;;8.20;5.30;;;;;;100927.13;;;;107260;1274;65364;-32
2022/04/12 03:25:25;;;;;;;7.50;5.10;;;;;;100930.19;;;;107229;1274;64142;-29
2022/04/12 03:27:53;;;;;;;8.30;5.90;;;;;;100929.15;;;;107242;1274;63918;-29
2022/04/12 03:30:20;;;;;;;7.40;5.30;;;;;;100933.33;;;;107218;1272;63938;-38
2022/04/12 03:32:50;;;;;;;8.50;5.90;;;;;;100933.55;;;;107253;1274;63832;-32
2022/04/12 03:35:21;;;;;;;7.80;5.70;;;;;;100931.61;;;;107268;1274;65374;-28
2022/04/12 03:37:49;;;;;;;8.70;5.70;;;;;;100931.02;;;;107243;1274;64054;-29
2022/04/12 03:40:16;;;;;;;7.20;5.10;;;;;;100929.05;;;;107266;1273;63903;-33
2022/04/12 03:42:44;;;;;;;8.10;5.50;;;;;;100930.23;;;;107258;1273;63979;-33
2022/04/12 03:45:11;;;;;;;7.70;5.40;;;;;;100929.17;;;;107240;1274;63925;-33
2022/04/12 03:47:41;;;;;;;8.30;5.70;;;;;;100932.71;;;;107276;1274;64488;-34
2022/04/12 03:50:09;;;;;;;7.70;5.00;;;;;;100930.30;;;;107233;1274;63945;-34
2022/04/12 03:52:36;;;;;;;8.10;5.20;;;;;;100930.13;;;;107225;1273;63950;-34
2022/04/12 03:55:05;;;;;;;7.50;5.30;;;;;;100932.36;;;;107235;1273;64048;-32
2022/04/12 03:57:33;;;;;;;6.60;4.90;;;;;;100934.86;;;;107304;1274;64027;-33
2022/04/12 04:00:00;;;;;;;7.80;5.60;;;;;;100932.33;;;;107294;1274;64016;-27
2022/04/12 04:02:27;;;;;;;8.90;5.60;;;;;;100935.27;;;;107233;1272;64031;-29
2022/04/12 04:04:54;;;;;;;7.70;5.20;;;;;;100937.42;;;;107225;1274;63915;-29
2022/04/12 04:07:23;;;;;;;8.60;5.00;;;;;;100940.83;;;;107237;1274;63963;-29
2022/04/12 04:09:53;;;;;;;8.60;5.60;;;;;;100946.64;;;;107267;1274;64049;-29
2022/04/12 04:12:20;;;;;;;8.00;5.20;;;;;;100951.20;;;;107267;1274;65359;-28
2022/04/12 04:14:47;;;;;;;7.70;5.70;;;;;;100953.27;;;;104795;1274;3312299;-29
2022/04/12 04:17:17;;;;;;;7.90;5.60;;;;;;100955.25;;;;107137;1272;64084;-29
2022/04/12 04:19:47;;;;;;;9.10;5.90;;;;;;100955.20;;;;107261;1274;64014;-29
2022/04/12 04:22:17;;;;;;;7.30;5.00;;;;;;100952.36;;;;107274;1274;64020;-28
2022/04/12 04:24:47;;;;;;;8.40;5.40;;;;;;100957.18;;;;107261;1274;65616;-28
2022/04/12 04:27:18;;;;;;;7.90;5.90;;;;;;100958.09;;;;107239;1274;63931;-29
2022/04/12 04:29:48;;;;;;;6.50;4.80;;;;;;100959.91;;;;107190;1274;64033;-33
2022/04/12 04:32:18;;;;;;;8.00;5.30;;;;;;100958.70;;;;107226;1274;63944;-33
2022/04/12 04:34:49;;;;;;;8.20;5.50;;;;;;100958.68;;;;107254;1274;64007;-29
2022/04/12 04:37:16;;;;;;;8.40;5.40;;;;;;100959.23;;;;107259;1274;65011;-29
2022/04/12 04:39:46;;;;;;;7.90;5.60;;;;;;100959.68;;;;107246;1274;64033;-29
2022/04/12 04:42:16;;;;;;;7.90;5.20;;;;;;100958.73;;;;107162;1274;64050;-28
2022/04/12 04:44:47;;;;;;;8.20;5.20;;;;;;100958.09;;;;107218;1274;64017;-29
2022/04/12 04:47:17;;;;;;;7.20;5.10;;;;;;100957.61;;;;107269;1274;64136;-29
2022/04/12 04:49:45;;;;;;;8.00;5.30;;;;;;100959.90;;;;107223;1274;64246;-29
2022/04/12 04:52:15;;;;;;;8.20;5.40;;;;;;100964.54;;;;107145;1274;64025;-29
2022/04/12 04:54:45;;;;;;;6.90;5.00;;;;;;100963.38;;;;107229;1274;64100;-28
2022/04/12 04:57:15;;;;;;;7.20;5.40;;;;;;100961.98;;;;107230;1273;64139;-29
2022/04/12 04:59:45;;;;;;;10.20;5.50;;;;;;100959.92;;;;107291;1274;64072;-30
2022/04/12 05:02:16;;;;;;;8.20;5.70;;;;;;100959.21;;;;107174;1274;65162;-28
2022/04/12 05:04:46;;;;;;;8.50;5.20;;;;;;100962.76;;;;107237;1274;64049;-33
2022/04/12 05:07:13;;;;;;;8.80;6.30;;;;;;100962.09;;;;107257;1272;64063;-33
2022/04/12 05:09:43;;;;;;;8.40;6.10;;;;;;100967.11;;;;107235;1274;64072;-32
2022/04/12 05:12:12;;;;;;;9.30;6.20;;;;;;100966.29;;;;107284;1274;63790;-31
2022/04/12 05:14:42;;;;;;;8.90;6.20;;;;;;100968.64;;;;107277;1273;64419;-36
2022/04/12 05:17:12;;;;;;;9.20;6.20;;;;;;100969.45;;;;107247;1274;63931;-33
2022/04/12 05:19:42;;;;;;;8.10;6.00;;;;;;100971.92;;;;107182;1274;64091;-33
2022/04/12 05:22:10;;;;;;;8.00;6.40;;;;;;100978.42;;;;107232;1274;63784;-33
2022/04/12 05:24:40;;;;;;;8.60;6.20;;;;;;100980.14;;;;107286;1274;63963;-39
2022/04/12 05:27:11;;;;;;;9.40;6.60;;;;;;100985.29;;;;107278;1274;65646;-33
2022/04/12 05:29:42;;;;;;;9.00;6.60;;;;;;100988.41;;;;107278;1274;63964;-29
2022/04/12 05:32:13;;;;;;;9.30;6.60;;;;;;100996.03;;;;107261;1274;64024;-29
2022/04/12 05:34:41;;;;;;;9.30;6.80;;;;;;100997.88;;;;107258;1272;64075;-30
2022/04/12 05:37:09;;;;;;;9.20;7.10;;;;;;101003.21;;;;107314;1273;63926;-27
2022/04/12 05:39:41;;;;;;;8.80;6.50;;;;;;101008.36;;;;107233;1274;65722;-33
2022/04/12 05:42:16;;;;;;;10.10;6.50;;;;;;101013.35;;;;107268;1274;64031;-33
2022/04/12 05:44:44;;;;;;;8.70;7.10;;;;;;101016.83;;;;107244;1273;63957;-29
2022/04/12 05:47:12;;;;;;;8.40;6.00;;;;;;101015.77;;;;107243;1274;64789;-32
2022/04/12 05:49:40;;;;;;;9.70;6.90;;;;;;101018.52;;;;107248;1274;64057;-33
2022/04/12 05:52:10;;;;;;;9.50;6.90;;;;;;101019.27;;;;107262;1274;64095;-32
2022/04/12 05:54:37;;;;;;;9.40;6.80;;;;;;101023.55;;;;107263;1274;64059;-33
2022/04/12 05:57:04;;;;;;;9.40;6.90;;;;;;101025.64;;;;107263;1274;64027;-33
2022/04/12 05:59:32;;;;;;;9.50;6.60;;;;;;101028.28;;;;107250;1274;63914;-33
2022/04/12 06:01:59;;;;;;;8.50;6.60;;;;;;101030.29;;;;107292;1274;63814;-32
2022/04/12 06:04:29;;;;;;;9.10;6.70;;;;;;101035.15;;;;107178;1274;64267;-32
2022/04/12 06:06:57;;;;;;;10.10;7.10;;;;;;101034.38;;;;107236;1274;64040;-34
2022/04/12 06:09:27;;;;;;;8.70;6.20;;;;;;101036.12;;;;107275;1274;63942;-29
2022/04/12 06:11:54;;;;;;;9.00;6.80;;;;;;101040.45;;;;107236;1274;63922;-29
2022/04/12 06:14:21;;;;;;;8.50;6.70;;;;;;101039.14;;;;107245;1274;63950;-29
2022/04/12 06:16:48;;;;;;;9.10;6.90;;;;;;101043.39;;;;107113;1274;66857;-28
2022/04/12 06:19:15;;;;;;;9.80;6.60;;;;;;101044.33;;;;107135;1274;63977;-32
2022/04/12 06:21:43;;;;;;;10.30;6.50;;;;;;101044.86;;;;107190;1274;64073;-33
2022/04/12 06:24:10;;;;;;;8.40;6.30;;;;;;101045.39;;;;107222;1273;63931;-32
2022/04/12 06:26:37;;;;;;;10.50;7.00;;;;;;101044.56;;;;107160;1274;63979;-31
2022/04/12 06:29:04;;;;;;;9.20;7.20;;;;;;101042.97;;;;107157;1273;66493;-31
2022/04/12 06:31:32;;;;;;;9.10;6.80;;;;;;101043.88;;;;107135;1274;64176;-33
2022/04/12 06:34:00;;;;;;;9.80;6.70;;;;;;101043.98;;;;107229;1274;63932;-33
2022/04/12 06:36:27;;;;;;;8.90;6.70;;;;;;101047.41;;;;107191;1273;64077;-32
2022/04/12 06:38:57;;;;;;;8.70;6.40;;;;;;101048.32;;;;107124;1273;64153;-31
2022/04/12 06:41:24;;;;;;;8.40;6.30;;;;;;101051.99;;;;107165;1273;66854;-33
2022/04/12 06:43:51;;;;;;;8.60;6.90;;;;;;101048.90;;;;107112;1274;64018;-28
2022/04/12 06:46:19;;;;;;;9.90;6.50;;;;;;101052.61;;;;107032;1274;65257;-29
2022/04/12 06:48:46;;;;;;;9.80;6.50;;;;;;101055.59;;;;107130;1273;63981;-29
2022/04/12 06:51:13;;;;;;;8.80;6.30;;;;;;101056.95;;;;107171;1273;63939;-30
2022/04/12 06:53:40;;;;;;;9.10;6.40;;;;;;101058.14;;;;107175;1273;64983;-29
2022/04/12 06:56:08;;;;;;;7.50;5.50;;;;;;101061.56;;;;107132;1273;64063;-30
2022/04/12 06:58:35;;;;;;;8.30;5.80;;;;;;101063.16;;;;107185;1273;63916;-29
2022/04/12 07:01:02;;;;;;;8.90;5.30;;;;;;101061.08;;;;107131;1273;63938;-30
2022/04/12 07:03:29;;;;;;;8.30;6.00;;;;;;101063.02;;;;107184;1273;63919;-33
2022/04/12 07:05:57;;;;;;;8.70;6.20;;;;;;101063.11;;;;107156;1273;65165;-33
2022/04/12 07:08:24;;;;;;;7.40;5.80;;;;;;101067.13;;;;107150;1273;63972;-40
2022/04/12 07:10:52;;;;;;;7.90;5.70;;;;;;101070.44;;;;107147;1273;64031;-38
2022/04/12 07:13:19;;;;;;;8.70;6.00;;;;;;101069.13;;;;107133;1274;64493;-34
2022/04/12 07:15:47;;;;;;;9.40;6.30;;;;;;101072.06;;;;107167;1276;64159;-29
2022/04/12 07:18:14;;;;;;;7.90;5.60;;;;;;101068.39;;;;107160;1274;66484;-29
2022/04/12 07:20:41;;;;;;;7.50;5.30;;;;;;101071.11;;;;107156;1274;64065;-29
2022/04/12 07:23:08;;;;;;;8.90;6.00;;;;;;101073.73;;;;107114;1274;64062;-28
2022/04/12 07:25:36;;;;;;;8.50;5.80;;;;;;101074.02;;;;107159;1274;64033;-37
2022/04/12 07:28:05;;;;;;;7.70;5.80;;;;;;101073.98;;;;107153;1275;64027;-37
2022/04/12 07:30:32;;;;;;;8.30;5.60;;;;;;101073.57;;;;107176;1274;66455;-41
2022/04/12 07:32:59;;;;;;;7.70;5.30;;;;;;101075.17;;;;107027;1274;63893;-36
2022/04/12 07:35:27;;;;;;;7.70;5.00;;;;;;101077.27;;;;106949;1274;63932;-28
2022/04/12 07:37:57;;;;;;;8.10;5.80;;;;;;101078.94;;;;106910;1274;63915;-28
2022/04/12 07:40:25;;;;;;;8.90;5.40;;;;;;101081.27;;;;107004;1274;63972;-37
2022/04/12 07:42:55;;;;;;;7.80;5.50;;;;;;101084.01;;;;106982;1274;65434;-36
2022/04/12 07:45:25;;;;;;;8.50;5.90;;;;;;101087.37;;;;106998;1274;64058;-29
2022/04/12 07:47:55;;;;;;;7.40;5.30;;;;;;101086.50;;;;107031;1274;64030;-28
2022/04/12 07:50:22;;;;;;;8.00;5.30;;;;;;101084.66;;;;107111;1274;63968;-41
2022/04/12 07:52:49;;;;;;;8.70;5.50;;;;;;101087.02;;;;107152;1274;63925;-38
2022/04/12 07:55:17;;;;;;;8.00;5.60;;;;;;101092.64;;;;107046;1274;64466;-28
2022/04/12 07:57:47;;;;;;;9.50;5.70;;;;;;101094.84;;;;107152;1274;63923;-29
2022/04/12 08:00:15;;;;;;;7.70;5.20;;;;;;101099.63;;;;107124;1274;64049;-68
2022/04/12 08:02:45;;;;;;;7.60;5.50;;;;;;101094.14;;;;107136;1274;64020;-29
2022/04/12 08:05:15;;;;;;;8.40;5.50;;;;;;101090.86;;;;107163;1274;63960;-30
2022/04/12 08:07:48;;;;;;;8.60;5.10;;;;;;101093.13;;;;107183;1274;65702;-28
2022/04/12 08:10:19;;;;;;;7.60;5.30;;;;;;101090.89;;;;107115;1274;63949;-35
2022/04/12 08:12:52;;;;;;;9.10;5.20;;;;;;101093.86;;;;107166;1274;64031;-35
2022/04/12 08:15:19;;;;;;;7.60;5.30;;;;;;101096.10;;;;107092;1273;65165;-27
2022/04/12 08:17:47;;;;;;;7.70;4.90;;;;;;101094.98;;;;107172;1273;63936;-32
2022/04/12 08:20:15;;;;;;;9.80;4.90;;;;;;101089.71;;;;107176;1274;65558;-34
2022/04/12 08:22:43;;;;;;;7.80;5.10;;;;;;101092.38;;;;107174;1273;64181;-34
2022/04/12 08:25:11;;;;;;;8.80;5.50;;;;;;101092.02;;;;107186;1273;64005;-31
2022/04/12 08:27:39;;;;;;;8.70;4.70;;;;;;101095.43;;;;107202;1273;63920;-30
2022/04/12 08:30:07;;;;;;;8.30;4.90;;;;;;101098.80;;;;107142;1273;64134;-35
2022/04/12 08:32:35;;;;;;;8.50;4.90;;;;;;101099.49;;;;107190;1273;64562;-35
2022/04/12 08:35:05;;;;;;;9.10;5.60;;;;;;101099.23;;;;107113;1276;64076;-29
2022/04/12 08:37:34;;;;;;;7.30;4.70;;;;;;101097.88;;;;107206;1273;63907;-30
2022/04/12 08:40:03;;;;;;;6.30;4.20;;;;;;101095.04;;;;107190;1273;64185;-30
2022/04/12 08:42:31;;;;;;;6.00;4.30;;;;;;101097.25;;;;107039;1273;64129;-29
2022/04/12 08:45:03;;;;;;;7.80;4.80;;;;;;101099.21;;;;107256;1273;65030;-33
2022/04/12 08:47:34;;;;;;;7.20;4.40;;;;;;101097.22;;;;107145;1273;63963;-33
2022/04/12 08:50:06;;;;;;;7.20;4.30;;;;;;101092.86;;;;107165;1273;64053;-33
2022/04/12 08:52:36;;;;;;;6.70;4.50;;;;;;101090.76;;;;107172;1273;63945;-31
2022/04/12 08:55:06;;;;;;;7.20;4.60;;;;;;101087.83;;;;107197;1273;64031;-32
2022/04/12 08:57:34;;;;;;;7.60;4.10;;;;;;101089.16;;;;107128;1273;65347;-31
2022/04/12 09:00:05;;;;;;;7.50;4.30;;;;;;101094.09;;;;107132;1273;64054;-30
2022/04/12 09:02:33;;;;;;;6.70;4.20;;;;;;101097.19;;;;107161;1273;64074;-29
2022/04/12 09:05:01;;;;;;;7.10;4.00;;;;;;101096.23;;;;107172;1273;64170;-32
2022/04/12 09:07:29;;;;;;;6.40;3.90;;;;;;101097.09;;;;107195;1273;64003;-30
2022/04/12 09:10:09;;;;;;;8.20;4.20;;;;;;101092.39;;;;107114;1273;65603;-34
2022/04/12 09:12:38;;;;;;;6.90;4.00;;;;;;101093.61;;;;107146;1273;64055;-35
2022/04/12 09:15:12;;;;;;;6.80;3.70;;;;;;101095.71;;;;107196;1273;64080;-34
2022/04/12 09:17:44;;;;;;;;;;;;;;101093.70;;;;107157;1273;64019;-34
2022/04/12 09:20:19;;;;;;;6.10;3.60;;;;;;101090.88;;;;107141;1275;63970;-35
2022/04/12 09:22:52;;;;;;;5.90;3.60;;;;;;101086.66;;;;107087;1275;66178;-28
2022/04/12 09:25:39;;;;;;;6.60;3.50;;;;;;101088.80;;;;107163;1273;63950;-28
2022/04/12 09:28:10;;;;;;;6.30;3.40;;;;;;101087.78;;;;107094;1273;63976;-28
2022/04/12 09:30:37;;;;;;;6.20;3.60;;;;;;101087.45;;;;107128;1274;65155;-29
2022/04/12 09:33:06;;;;;;;7.00;3.50;;;;;;101087.38;;;;107174;1273;63991;-28
2022/04/12 09:35:33;;;;;;;5.70;3.20;;;;;;101083.25;;;;107193;1273;64039;-35
2022/04/12 09:38:03;;;;;;;6.40;3.30;;;;;;101079.85;;;;107110;1274;64013;-36
2022/04/12 09:40:30;;;;;;;5.80;3.20;;;;;;101085.44;;;;107160;1273;64058;-28
2022/04/12 09:43:05;;;;;;;5.90;3.10;;;;;;101086.16;;;;107166;1273;64067;-29
2022/04/12 09:45:33;;;;;;;5.90;3.10;;;;;;101085.69;;;;107173;1273;63837;-28
2022/04/12 09:48:08;;;;;;;5.90;2.90;;;;;;101083.92;;;;107176;1273;64075;-28
2022/04/12 09:50:40;;;;;;;5.40;3.00;;;;;;101083.17;;;;107118;1273;64026;-36
2022/04/12 09:53:09;;;;;;;5.30;3.10;;;;;;101083.02;;;;107177;1273;64487;-36
2022/04/12 09:55:41;;;;;;;5.40;2.90;;;;;;101078.33;;;;107122;1273;64069;-36
2022/04/12 09:58:15;;;;;;;6.90;3.30;;;;;;101078.20;;;;107186;1273;63920;-36
2022/04/12 10:00:47;;;;;;;5.90;3.40;;;;;;101072.73;;;;107152;1273;66878;-28
2022/04/12 10:03:17;;;;;;;5.70;2.80;;;;;;101070.92;;;;107144;1273;64073;-29
2022/04/12 10:05:46;;;;;;;7.10;3.10;;;;;;101078.59;;;;107185;1273;64021;-29
2022/04/12 10:08:17;;;;;;;5.80;3.00;;;;;;101076.92;;;;107182;1273;63882;-30
2022/04/12 10:10:45;;;;;;;5.90;3.00;;;;;;101081.58;;;;107188;1273;63899;-29
2022/04/12 10:13:16;;;;;;;6.40;2.70;;;;;;101078.58;;;;107217;1273;64287;-30
2022/04/12 10:15:44;;;;;;;5.10;2.80;;;;;;101076.64;;;;107124;1274;64030;-37
2022/04/12 10:18:15;;;;;;;6.30;2.90;;;;;;101068.79;;;;107152;1274;64612;-38
2022/04/12 10:20:44;;;;;;;6.20;3.20;;;;;;101066.48;;;;107204;1273;64047;-29
2022/04/12 10:23:13;;;;;;;5.70;3.10;;;;;;101061.30;;;;107249;1273;64038;-36
2022/04/12 10:25:41;;;;;;;4.90;2.60;;;;;;101058.42;;;;107185;1274;65363;-28
2022/04/12 10:28:08;;;;;;;5.00;2.80;;;;;;101055.73;;;;107241;1273;64075;-46
2022/04/12 10:30:35;;;;;;;5.30;2.50;;;;;;101047.95;;;;107189;1273;63923;-30
2022/04/12 10:33:09;;;;;;;6.10;2.90;;;;;;101044.15;;;;107151;1274;64040;-28
2022/04/12 10:35:42;;;;;;;5.40;2.50;;;;;;101041.85;;;;107202;1274;63882;-35
2022/04/12 10:38:22;;;;;;;5.00;2.30;;;;;;101050.99;;;;107143;1274;66551;-36
2022/04/12 10:40:53;;;;;;;5.50;2.30;;;;;;101052.68;;;;107206;1273;63925;-42
2022/04/12 10:43:33;;;;;;;5.00;2.40;;;;;;101053.23;;;;107171;1274;63997;-31
2022/04/12 10:46:03;;;;;;;4.70;2.40;;;;;;101058.45;;;;107168;1273;63952;-66
2022/04/12 10:48:33;;;;;;;5.30;2.70;;;;;;101055.25;;;;107147;1275;64069;-35
2022/04/12 10:51:03;;;;;;;6.00;2.60;;;;;;101055.96;;;;107165;1274;65679;-34
2022/04/12 10:53:40;;;;;;;4.90;2.30;;;;;;101051.11;;;;107246;1273;64041;-35
2022/04/12 10:56:15;;;;;;;5.60;2.70;;;;;;101045.77;;;;107211;1274;63938;-36
2022/04/12 10:58:44;;;;;;;4.70;2.20;;;;;;101043.82;;;;107167;1274;64023;-31
2022/04/12 11:01:46;;;;;;;5.30;2.50;;;;;;101041.19;;;;107232;1273;63949;-31
2022/04/12 11:04:26;;;;;;;4.60;2.50;;;;;;101044.96;;;;107079;1274;67003;-30
2022/04/12 11:06:58;;;;;;;5.40;2.70;;;;;;101041.23;;;;107052;1276;64056;-30
2022/04/12 11:09:27;;;;;;;3.90;2.20;;;;;;101040.48;;;;107200;1274;64024;-36
2022/04/12 11:11:58;;;;;;;5.20;2.50;;;;;;101040.04;;;;107124;1273;63945;-34
2022/04/12 11:14:38;;;;;;;4.80;2.30;;;;;;101039.06;;;;107136;1274;61348;-33
2022/04/12 11:17:12;;;;;;;4.90;2.30;;;;;;101046.76;;;;107197;1273;65024;-43
2022/04/12 11:19:45;;;;;;;4.80;2.30;;;;;;101045.69;;;;107201;1274;63712;-31
2022/04/12 11:22:17;;;;;;;4.90;2.10;;;;;;101045.71;;;;107155;1274;64044;-29
2022/04/12 11:25:15;;;;;;;4.20;2.00;;;;;;101047.69;;;;107185;1273;64079;-28
2022/04/12 11:27:43;;;;;;;4.10;2.20;;;;;;101049.44;;;;107262;1272;63915;-28
2022/04/12 11:30:13;;;;;;;4.30;2.00;;;;;;101044.88;;;;107177;1274;65091;-38
2022/04/12 11:32:41;;;;;;;5.40;2.00;;;;;;101043.66;;;;107190;1274;63968;-40
2022/04/12 11:35:09;;;;;;;4.40;2.20;;;;;;101042.83;;;;107132;1276;63886;-29
2022/04/12 11:37:41;;;;;;;4.30;1.90;;;;;;101046.61;;;;107224;1273;64068;-28
2022/04/12 11:40:09;;;;;;;4.30;2.00;;;;;;101042.91;;;;107236;1273;64020;-29
2022/04/12 11:42:37;;;;;;;4.20;2.00;;;;;;101042.82;;;;107123;1274;65630;-28
2022/04/12 11:45:05;;;;;;;5.30;2.30;;;;;;101037.59;;;;107185;1273;64054;-40
2022/04/12 11:47:37;;;;;;;4.30;2.20;;;;;;101039.98;;;;107208;1274;63965;-40
2022/04/12 11:50:17;;;;;;;4.30;1.80;;;;;;101041.20;;;;107226;1273;64146;-39
2022/04/12 11:52:46;;;;;;;4.70;2.00;;;;;;101042.30;;;;107216;1273;63938;-39
2022/04/12 11:55:13;;;;;;;3.30;1.70;;;;;;101040.50;;;;107239;1273;64188;-29
2022/04/12 11:57:40;;;;;;;4.60;2.10;;;;;;101036.27;;;;107108;1274;64342;-27
2022/04/12 12:00:09;;;;;;;3.70;1.80;;;;;;101033.14;;;;107171;1273;64056;-29
2022/04/12 12:02:43;;;;;;;5.60;2.60;;;;;;101029.42;;;;107222;1273;63956;-30
2022/04/12 12:05:13;;;;;;;3.80;1.80;;;;;;101038.91;;;;107115;1275;64157;-39
2022/04/12 12:07:40;;;;;;;5.60;1.90;;;;;;101041.32;;;;107259;1274;65463;-30
2022/04/12 12:10:13;;;;;;;4.50;1.80;;;;;;101039.41;;;;107143;1274;63178;-39
2022/04/12 12:12:46;;;;;;;4.30;1.90;;;;;;101042.63;;;;107237;1274;63931;-34
2022/04/12 12:15:27;;;;;;;4.10;1.80;;;;;;101040.01;;;;106774;1274;510781;-30
2022/04/12 12:18:01;;;;;;;4.40;2.00;;;;;;101036.20;;;;107169;1273;63948;-29
2022/04/12 12:20:31;;;;;;;3.80;2.00;;;;;;101027.31;;;;107158;1274;66582;-35
2022/04/12 12:23:08;;;;;;;4.90;2.10;;;;;;101030.48;;;;107189;1273;64089;-36
2022/04/12 12:25:42;;;;;;;4.30;1.80;;;;;;101027.21;;;;107131;1274;63976;-28
2022/04/12 12:28:24;;;;;;;4.40;1.80;;;;;;101023.66;;;;107124;1274;63931;-30
2022/04/12 12:31:03;;;;;;;4.20;1.70;;;;;;101017.92;;;;107199;1274;63950;-41
2022/04/12 12:33:44;;;;;;;4.90;1.90;;;;;;101019.23;;;;107199;1274;66099;-38
2022/04/12 12:36:23;;;;;;;3.40;1.70;;;;;;101019.91;;;;107151;1274;63929;-37
2022/04/12 12:38:56;;;;;;;4.70;1.90;;;;;;101020.81;;;;107235;1274;64143;-29
2022/04/12 12:41:35;;;;;;;6.60;1.80;;;;;;101017.91;;;;107135;1275;63971;-29
2022/04/12 12:44:04;;;;;;;3.90;1.70;;;;;;101016.66;;;;107233;1274;64070;-33
2022/04/12 12:46:34;;;;;;;4.30;1.60;;;;;;101017.77;;;;107256;1274;65309;-38
2022/04/12 12:49:16;;;;;;;4.60;2.00;;;;;;101017.59;;;;107179;1274;63985;-30
2022/04/12 12:51:44;;;;;;;4.50;1.60;;;;;;101020.98;;;;107177;1273;64152;-41
2022/04/12 12:54:14;;;;;;;4.60;1.90;;;;;;101021.16;;;;107088;1275;64075;-31
2022/04/12 12:56:50;;;;;;;3.80;1.60;;;;;;101024.71;;;;107196;1274;64755;-41
2022/04/12 12:59:20;;;;;;;4.00;1.80;;;;;;101027.91;;;;107091;1275;66349;-37
2022/04/12 13:01:54;;;;;;;3.80;1.50;;;;;;101020.20;;;;107192;1274;63800;-38
2022/04/12 13:04:31;;;;;;;4.30;1.90;;;;;;101020.73;;;;107154;1274;64024;-27